createdAt,value
2018-02-21T00:01:09.020Z,96799.27
2018-02-21T00:03:36.539Z,96803.06
2018-02-21T00:06:04.049Z,96803.44
2018-02-21T00:08:31.597Z,96799.48
2018-02-21T00:10:59.035Z,96795.30
2018-02-21T00:13:26.525Z,96794.27
2018-02-21T00:15:54.046Z,96792.42
2018-02-21T00:18:21.518Z,96801.61
2018-02-21T00:20:48.973Z,96803.48
2018-02-21T00:23:16.432Z,96799.09
2018-02-21T00:25:43.890Z,96795.84
2018-02-21T00:28:11.410Z,96797.59
2018-02-21T00:30:39.555Z,96800.31
2018-02-21T00:33:06.993Z,96790.80
2018-02-21T00:35:34.550Z,96793.77
2018-02-21T00:38:02.350Z,96795.76
2018-02-21T00:40:30.023Z,96787.04
2018-02-21T00:42:57.548Z,96796.64
2018-02-21T00:45:25.338Z,96787.20
2018-02-21T00:47:52.831Z,96799.94
2018-02-21T00:50:20.299Z,96807.58
2018-02-21T00:52:47.847Z,96793.84
2018-02-21T00:55:15.511Z,96804.98
2018-02-21T00:57:43.514Z,96797.94
2018-02-21T01:00:10.974Z,96792.55
2018-02-21T01:02:38.584Z,96800.78
2018-02-21T01:05:06.005Z,96803.53
2018-02-21T01:07:33.434Z,96810.66
2018-02-21T01:10:00.980Z,96806.78
2018-02-21T01:12:28.480Z,96799.73
2018-02-21T01:14:56.026Z,96797.69
2018-02-21T01:17:23.446Z,96793.17
2018-02-21T01:19:50.923Z,96792.64
2018-02-21T01:22:18.567Z,96787.05
2018-02-21T01:24:46.832Z,96799.03
2018-02-21T01:27:14.348Z,96796.48
2018-02-21T01:29:41.871Z,96782.92
2018-02-21T01:32:09.338Z,96780.66
2018-02-21T01:34:36.810Z,96796.27
2018-02-21T01:37:04.313Z,96794.02
2018-02-21T01:39:31.826Z,96782.45
2018-02-21T01:41:59.359Z,96772.98
2018-02-21T01:44:26.960Z,96781.70
2018-02-21T01:46:54.421Z,96779.96
2018-02-21T01:49:22.062Z,96775.53
2018-02-21T01:51:49.530Z,96774.19
2018-02-21T01:54:17.520Z,96771.53
2018-02-21T01:56:44.982Z,96772.98
2018-02-21T01:59:12.475Z,96778.41
2018-02-21T02:01:39.950Z,96770.41
2018-02-21T02:04:07.451Z,96755.75
2018-02-21T02:06:34.848Z,96770.15
2018-02-21T02:09:02.289Z,96764.19
2018-02-21T02:11:29.791Z,96766.56
2018-02-21T02:13:57.258Z,96755.47
2018-02-21T02:16:24.742Z,96767.48
2018-02-21T02:18:52.335Z,96756.47
2018-02-21T02:21:19.837Z,96755.14
2018-02-21T02:23:47.359Z,96772.20
2018-02-21T02:26:14.860Z,96771.36
2018-02-21T02:28:42.380Z,96771.06
2018-02-21T02:31:09.818Z,96768.77
2018-02-21T02:33:37.319Z,96770.36
2018-02-21T02:36:04.714Z,96766.53
2018-02-21T02:38:40.836Z,96764.94
2018-02-21T02:41:08.351Z,96759.59
2018-02-21T02:43:35.851Z,96756.42
2018-02-21T02:46:03.337Z,96760.72
2018-02-21T02:48:30.830Z,96758.34
2018-02-21T02:50:58.314Z,96761.18
2018-02-21T02:53:25.838Z,96754.46
2018-02-21T02:55:53.444Z,96745.30
2018-02-21T02:58:20.933Z,96755.63
2018-02-21T03:00:48.460Z,96748.50
2018-02-21T03:03:15.965Z,96748.59
2018-02-21T03:05:43.439Z,96748.42
2018-02-21T03:08:10.935Z,96744.28
2018-02-21T03:10:38.443Z,96742.98
2018-02-21T03:13:05.964Z,96741.61
2018-02-21T03:15:33.474Z,96735.69
2018-02-21T03:18:00.910Z,96736.45
2018-02-21T03:20:28.461Z,96741.23
2018-02-21T03:22:55.989Z,96727.98
2018-02-21T03:25:23.502Z,96736.87
2018-02-21T03:27:50.991Z,96723.78
2018-02-21T03:30:18.447Z,96724.81
2018-02-21T03:32:45.863Z,96725.15
2018-02-21T03:35:13.392Z,96726.36
2018-02-21T03:37:40.851Z,96728.94
2018-02-21T03:40:08.393Z,96724.77
2018-02-21T03:42:36.753Z,96737.81
2018-02-21T03:45:05.356Z,96721.56
2018-02-21T03:47:32.919Z,96717.56
2018-02-21T03:50:00.409Z,96734.45
2018-02-21T03:52:27.980Z,96730.99
2018-02-21T03:54:55.655Z,96723.78
2018-02-21T03:57:23.151Z,96722.98
2018-02-21T03:59:50.672Z,96725.77
2018-02-21T04:02:18.511Z,96724.23
2018-02-21T04:04:46.011Z,96740.23
2018-02-21T04:07:13.478Z,96730.36
2018-02-21T04:09:40.962Z,96733.02
2018-02-21T04:12:08.460Z,96718.59
2018-02-21T04:14:35.916Z,96729.27
2018-02-21T04:17:03.530Z,96739.36
2018-02-21T04:19:31.098Z,96729.48
2018-02-21T04:21:58.624Z,96738.07
2018-02-21T04:24:26.220Z,96737.78
2018-02-21T04:26:53.659Z,96716.30
2018-02-21T04:29:21.050Z,96708.68
2018-02-21T04:31:48.489Z,96722.89
2018-02-21T04:34:16.003Z,96717.39
2018-02-21T04:36:43.471Z,96723.42
2018-02-21T04:39:11.026Z,96722.02
2018-02-21T04:41:38.523Z,96716.69
2018-02-21T04:44:05.946Z,96717.02
2018-02-21T04:46:33.404Z,96719.81
2018-02-21T04:49:00.989Z,96719.47
2018-02-21T04:51:28.638Z,96723.22
2018-02-21T04:53:56.834Z,96724.18
2018-02-21T04:56:27.762Z,96727.56
2018-02-21T04:58:58.798Z,96726.06
2018-02-21T05:01:26.327Z,96699.21
2018-02-21T05:03:53.828Z,96706.55
2018-02-21T05:06:21.292Z,96701.17
2018-02-21T05:11:23.299Z,96689.08
2018-02-21T05:13:50.765Z,96700.13
2018-02-21T05:16:18.273Z,96692.13
2018-02-21T05:18:45.745Z,96695.38
2018-02-21T05:21:13.251Z,96688.88
2018-02-21T05:23:40.721Z,96700.13
2018-02-21T05:26:08.231Z,96692.75
2018-02-21T05:28:35.737Z,96694.25
2018-02-21T05:31:03.467Z,96686.03
2018-02-21T05:33:31.033Z,96701.34
2018-02-21T05:35:58.538Z,96693.00
2018-02-21T05:38:26.147Z,96686.45
2018-02-21T05:40:53.771Z,96682.32
2018-02-21T05:43:21.347Z,96692.67
2018-02-21T05:45:48.937Z,96685.58
2018-02-21T05:48:16.408Z,96682.84
2018-02-21T05:50:44.257Z,96687.91
2018-02-21T05:53:11.765Z,96686.13
2018-02-21T05:55:39.518Z,96681.53
2018-02-21T05:58:07.034Z,96691.05
2018-02-21T06:00:34.497Z,96691.05
2018-02-21T06:03:01.950Z,96692.67
2018-02-21T06:05:29.467Z,96684.33
2018-02-21T06:07:56.989Z,96689.25
2018-02-21T06:10:24.472Z,96693.87
2018-02-21T06:12:51.973Z,96695.38
2018-02-21T06:15:19.495Z,96699.92
2018-02-21T06:17:47.030Z,96699.96
2018-02-21T06:20:14.501Z,96704.41
2018-02-21T06:22:41.950Z,96708.37
2018-02-21T06:25:09.758Z,96716.84
2018-02-21T06:27:37.252Z,96708.92
2018-02-21T06:30:04.786Z,96702.88
2018-02-21T06:32:32.273Z,96703.45
2018-02-21T06:34:59.771Z,96708.21
2018-02-21T06:37:27.244Z,96712.76
2018-02-21T06:39:55.626Z,96708.34
2018-02-21T06:42:23.367Z,96693.55
2018-02-21T06:44:50.836Z,96702.93
2018-02-21T06:47:18.373Z,96701.00
2018-02-21T06:49:45.937Z,96704.50
2018-02-21T06:52:13.445Z,96679.37
2018-02-21T06:54:40.969Z,96695.08
2018-02-21T06:57:08.471Z,96701.50
2018-02-21T06:59:36.031Z,96704.46
2018-02-21T07:02:04.549Z,96703.75
2018-02-21T07:04:32.023Z,96692.16
2018-02-21T07:06:59.511Z,96662.33
2018-02-21T07:09:27.115Z,96688.33
2018-02-21T07:11:54.617Z,96682.33
2018-02-21T07:14:22.178Z,96677.66
2018-02-21T07:16:49.684Z,96683.27
2018-02-21T07:19:17.998Z,96691.01
2018-02-21T07:21:45.860Z,96667.02
2018-02-21T07:24:13.346Z,96690.84
2018-02-21T07:26:40.914Z,96686.55
2018-02-21T07:29:08.426Z,96671.51
2018-02-21T07:31:35.917Z,96677.66
2018-02-21T07:34:03.389Z,96674.13
2018-02-21T07:36:30.862Z,96672.58
2018-02-21T07:38:58.629Z,96677.09
2018-02-21T07:41:26.153Z,96680.41
2018-02-21T07:43:54.448Z,96678.11
2018-02-21T07:46:21.914Z,96660.14
2018-02-21T07:48:49.431Z,96676.41
2018-02-21T07:51:17.035Z,96663.11
2018-02-21T07:53:44.559Z,96652.73
2018-02-21T07:56:12.102Z,96659.31
2018-02-21T07:58:39.720Z,96660.45
2018-02-21T08:01:07.206Z,96657.61
2018-02-21T08:03:34.758Z,96649.98
2018-02-21T08:06:03.128Z,96661.77
2018-02-21T08:08:30.717Z,96668.08
2018-02-21T08:10:58.186Z,96656.39
2018-02-21T08:13:25.740Z,96661.27
2018-02-21T08:15:53.233Z,96655.97
2018-02-21T08:18:20.791Z,96661.52
2018-02-21T08:20:48.316Z,96670.78
2018-02-21T08:23:15.741Z,96633.20
2018-02-21T08:25:43.321Z,96654.20
2018-02-21T08:28:10.792Z,96667.19
2018-02-21T08:30:38.377Z,96654.66
2018-02-21T08:33:05.914Z,96666.30
2018-02-21T08:35:33.400Z,96667.00
2018-02-21T08:38:01.432Z,96663.64
2018-02-21T08:40:28.970Z,96665.18
2018-02-21T08:42:56.455Z,96665.44
2018-02-21T08:45:23.951Z,96662.51
2018-02-21T08:47:51.461Z,96663.36
2018-02-21T08:50:18.966Z,96650.02
2018-02-21T08:52:46.503Z,96656.50
2018-02-21T08:55:13.983Z,96674.08
2018-02-21T08:57:41.621Z,96676.40
2018-02-21T09:00:09.125Z,96675.52
2018-02-21T09:02:36.684Z,96665.50
2018-02-21T09:05:04.782Z,96686.50
2018-02-21T09:07:32.396Z,96687.81
2018-02-21T09:09:59.833Z,96683.81
2018-02-21T09:12:28.155Z,96671.38
2018-02-21T09:14:55.627Z,96679.23
2018-02-21T09:17:23.040Z,96687.95
2018-02-21T09:19:50.489Z,96697.45
2018-02-21T09:22:17.942Z,96704.26
2018-02-21T09:24:45.425Z,96694.05
2018-02-21T09:27:12.918Z,96696.52
2018-02-21T09:29:40.413Z,96709.42
2018-02-21T09:32:07.940Z,96698.78
2018-02-21T09:34:35.358Z,96703.63
2018-02-21T09:37:02.882Z,96709.14
2018-02-21T09:39:30.353Z,96707.66
2018-02-21T09:41:57.940Z,96704.73
2018-02-21T09:44:25.743Z,96716.10
2018-02-21T09:46:53.276Z,96716.64
2018-02-21T09:49:20.852Z,96721.71
2018-02-21T09:51:48.525Z,96716.20
2018-02-21T09:54:16.013Z,96722.89
2018-02-21T09:56:43.529Z,96742.20
2018-02-21T09:59:10.990Z,96727.64
2018-02-21T10:01:38.595Z,96732.27
2018-02-21T10:04:06.138Z,96725.42
2018-02-21T10:06:33.609Z,96716.17
2018-02-21T10:09:01.347Z,96722.19
2018-02-21T10:11:28.814Z,96729.61
2018-02-21T10:13:56.274Z,96734.69
2018-02-21T10:16:23.732Z,96744.60
2018-02-21T10:18:51.234Z,96737.80
2018-02-21T10:21:18.745Z,96739.67
2018-02-21T10:23:46.319Z,96742.77
2018-02-21T10:26:13.833Z,96737.90
2018-02-21T10:28:41.549Z,96740.97
2018-02-21T10:31:09.024Z,96742.65
2018-02-21T10:33:36.646Z,96743.17
2018-02-21T10:36:04.592Z,96749.03
2018-02-21T10:38:32.086Z,96739.59
2018-02-21T10:40:59.601Z,96756.69
2018-02-21T10:43:27.076Z,96756.66
2018-02-21T10:45:54.742Z,96752.48
2018-02-21T10:48:22.307Z,96754.61
2018-02-21T10:50:49.809Z,96765.12
2018-02-21T10:53:17.354Z,96754.78
2018-02-21T10:55:44.870Z,96754.44
2018-02-21T10:58:12.690Z,96765.93
2018-02-21T11:00:45.749Z,96768.16
2018-02-21T11:03:13.216Z,96761.72
2018-02-21T11:05:40.974Z,96759.75
2018-02-21T11:08:08.456Z,96753.09
2018-02-21T11:10:36.140Z,96774.09
2018-02-21T11:13:04.575Z,96766.01
2018-02-21T11:15:31.999Z,96770.72
2018-02-21T11:17:59.593Z,96769.44
2018-02-21T11:20:27.021Z,96767.23
2018-02-21T11:22:54.489Z,96777.91
2018-02-21T11:25:22.148Z,96771.71
2018-02-21T11:27:49.666Z,96774.60
2018-02-21T11:30:17.382Z,96762.71
2018-02-21T11:32:44.952Z,96773.16
2018-02-21T11:35:12.493Z,96773.27
2018-02-21T11:37:39.978Z,96780.85
2018-02-21T11:40:07.520Z,96779.27
2018-02-21T11:42:34.971Z,96781.59
2018-02-21T11:45:02.527Z,96791.73
2018-02-21T11:47:29.924Z,96788.81
2018-02-21T11:49:57.426Z,96793.67
2018-02-21T11:52:24.904Z,96795.45
2018-02-21T11:54:52.972Z,96793.30
2018-02-21T11:57:20.434Z,96787.94
2018-02-21T11:59:47.883Z,96798.98
2018-02-21T12:02:15.430Z,96796.72
2018-02-21T12:04:43.160Z,96800.98
2018-02-21T12:07:10.625Z,96807.45
2018-02-21T12:09:41.192Z,96817.92
2018-02-21T12:12:08.690Z,96818.34
2018-02-21T12:14:36.302Z,96796.77
2018-02-21T12:17:03.769Z,96812.17
2018-02-21T12:19:31.274Z,96819.53
2018-02-21T12:21:58.771Z,96809.95
2018-02-21T12:24:26.280Z,96806.48
2018-02-21T12:26:54.176Z,96806.54
2018-02-21T12:29:21.683Z,96812.45
2018-02-21T12:31:51.567Z,96816.11
2018-02-21T12:34:19.085Z,96798.63
2018-02-21T12:36:46.602Z,96810.28
2018-02-21T12:39:19.834Z,96803.72
2018-02-21T12:41:47.339Z,96809.17
2018-02-21T12:44:14.894Z,96825.38
2018-02-21T12:46:42.366Z,96810.94
2018-02-21T12:49:09.916Z,96823.84
2018-02-21T12:51:37.416Z,96805.14
2018-02-21T12:54:04.988Z,96803.30
2018-02-21T12:56:32.560Z,96788.90
2018-02-21T12:59:00.079Z,96812.60
2018-02-21T13:01:27.582Z,96804.13
2018-02-21T13:03:55.088Z,96799.53
2018-02-21T13:06:22.616Z,96790.14
2018-02-21T13:08:50.103Z,96794.00
2018-02-21T13:11:17.585Z,96799.82
2018-02-21T13:13:45.068Z,96796.91
2018-02-21T13:16:12.500Z,96803.25
2018-02-21T13:18:39.908Z,96789.03
2018-02-21T13:21:07.365Z,96804.73
2018-02-21T13:23:34.868Z,96800.98
2018-02-21T13:26:02.779Z,96788.30
2018-02-21T13:28:30.305Z,96792.04
2018-02-21T13:30:57.788Z,96793.11
2018-02-21T13:33:25.267Z,96786.53
2018-02-21T13:35:52.846Z,96784.20
2018-02-21T13:38:20.298Z,96790.73
2018-02-21T13:40:47.721Z,96773.76
2018-02-21T13:43:15.124Z,96775.19
2018-02-21T13:45:42.520Z,96782.33
2018-02-21T13:48:10.029Z,96764.09
2018-02-21T13:50:37.748Z,96767.11
2018-02-21T13:53:05.259Z,96769.32
2018-02-21T13:55:32.742Z,96775.46
2018-02-21T13:58:00.239Z,96766.85
2018-02-21T14:00:27.664Z,96761.17
2018-02-21T14:02:55.123Z,96753.73
2018-02-21T14:05:23.766Z,96750.78
2018-02-21T14:07:51.218Z,96764.89
2018-02-21T14:10:19.633Z,96755.59
2018-02-21T14:12:47.091Z,96745.00
2018-02-21T14:15:14.621Z,96741.30
2018-02-21T14:17:42.645Z,96748.53
2018-02-21T14:20:10.359Z,96747.34
2018-02-21T14:22:37.855Z,96751.00
2018-02-21T14:25:05.413Z,96738.51
2018-02-21T14:27:32.935Z,96730.09
2018-02-21T14:30:00.485Z,96737.80
2018-02-21T14:32:28.726Z,96729.64
2018-02-21T14:34:56.246Z,96741.63
2018-02-21T14:37:23.729Z,96730.32
2018-02-21T14:39:51.295Z,96735.87
2018-02-21T14:42:18.773Z,96737.48
2018-02-21T14:44:46.394Z,96739.02
2018-02-21T14:47:13.880Z,96735.98
2018-02-21T14:49:41.390Z,96725.40
2018-02-21T14:52:09.316Z,96738.64
2018-02-21T14:54:36.820Z,96723.00
2018-02-21T14:57:04.359Z,96727.75
2018-02-21T14:59:31.928Z,96728.12
2018-02-21T15:01:59.397Z,96725.98
2018-02-21T15:04:26.894Z,96726.05
2018-02-21T15:06:54.509Z,96717.02
2018-02-21T15:09:22.073Z,96715.31
2018-02-21T15:11:49.612Z,96719.71
2018-02-21T15:14:17.106Z,96727.53
2018-02-21T15:16:44.669Z,96717.80
2018-02-21T15:19:12.162Z,96718.38
2018-02-21T15:21:39.660Z,96713.70
2018-02-21T15:24:08.144Z,96710.88
2018-02-21T15:26:35.609Z,96707.23
2018-02-21T15:29:04.006Z,96723.46
2018-02-21T15:31:31.514Z,96729.38
2018-02-21T15:33:59.059Z,96722.41
2018-02-21T15:36:26.538Z,96718.59
2018-02-21T15:38:54.014Z,96722.64
2018-02-21T15:41:21.502Z,96723.94
2018-02-21T15:43:48.995Z,96709.82
2018-02-21T15:46:16.525Z,96715.98
2018-02-21T15:48:44.093Z,96719.36
2018-02-21T15:51:11.591Z,96712.92
2018-02-21T15:53:39.281Z,96717.28
2018-02-21T15:56:06.805Z,96712.80
2018-02-21T15:58:34.303Z,96708.45
2018-02-21T16:01:01.853Z,96708.55
2018-02-21T16:03:30.611Z,96703.92
2018-02-21T16:05:58.062Z,96726.41
2018-02-21T16:08:25.616Z,96716.83
2018-02-21T16:10:53.278Z,96718.31
2018-02-21T16:13:20.675Z,96714.47
2018-02-21T16:15:48.134Z,96705.74
2018-02-21T16:18:15.779Z,96714.70
2018-02-21T16:20:43.240Z,96715.63
2018-02-21T16:23:11.293Z,96719.79
2018-02-21T16:25:39.005Z,96716.09
2018-02-21T16:28:06.498Z,96718.13
2018-02-21T16:30:34.296Z,96717.54
2018-02-21T16:33:01.791Z,96726.03
2018-02-21T16:35:29.253Z,96719.34
2018-02-21T16:37:56.746Z,96721.83
2018-02-21T16:40:24.257Z,96717.44
2018-02-21T16:42:51.930Z,96720.62
2018-02-21T16:45:19.394Z,96716.16
2018-02-21T16:47:46.847Z,96715.31
2018-02-21T16:50:14.415Z,96729.70
2018-02-21T16:52:41.827Z,96731.64
2018-02-21T16:55:09.914Z,96731.45
2018-02-21T16:57:37.453Z,96723.64
2018-02-21T17:00:04.929Z,96725.99
2018-02-21T17:02:32.451Z,96733.58
2018-02-21T17:04:59.929Z,96737.70
2018-02-21T17:07:27.423Z,96733.12
2018-02-21T17:09:54.897Z,96738.37
2018-02-21T17:12:22.419Z,96729.88
2018-02-21T17:14:49.942Z,96728.31
2018-02-21T17:17:17.467Z,96719.16
2018-02-21T17:19:45.972Z,96737.88
2018-02-21T17:22:13.443Z,96735.66
2018-02-21T17:24:41.245Z,96736.25
2018-02-21T17:27:08.790Z,96738.75
2018-02-21T17:29:36.301Z,96736.99
2018-02-21T17:32:03.773Z,96737.08
2018-02-21T17:34:31.275Z,96737.95
2018-02-21T17:36:58.741Z,96741.16
2018-02-21T17:39:26.228Z,96730.48
2018-02-21T17:41:53.763Z,96741.67
2018-02-21T17:44:21.544Z,96743.88
2018-02-21T17:46:49.037Z,96747.86
2018-02-21T17:49:16.455Z,96746.09
2018-02-21T17:51:44.065Z,96752.31
2018-02-21T17:54:11.570Z,96749.09
2018-02-21T17:56:39.091Z,96755.89
2018-02-21T17:59:06.637Z,96751.08
2018-02-21T18:01:34.208Z,96738.73
2018-02-21T18:04:01.747Z,96732.97
2018-02-21T18:06:29.156Z,96739.12
2018-02-21T18:08:56.682Z,96752.39
2018-02-21T18:11:24.165Z,96747.67
2018-02-21T18:13:51.577Z,96747.30
2018-02-21T18:16:19.058Z,96735.56
2018-02-21T18:18:46.524Z,96745.55
2018-02-21T18:21:19.530Z,96753.82
2018-02-21T18:23:47.055Z,96752.52
2018-02-21T18:26:14.503Z,96750.67
2018-02-21T18:28:42.037Z,96746.45
2018-02-21T18:31:09.559Z,96743.59
2018-02-21T18:33:37.037Z,96733.16
2018-02-21T18:36:04.529Z,96733.05
2018-02-21T18:38:32.075Z,96726.63
2018-02-21T18:40:59.609Z,96733.89
2018-02-21T18:43:27.139Z,96728.71
2018-02-21T18:45:54.696Z,96727.42
2018-02-21T18:48:22.251Z,96728.34
2018-02-21T18:50:49.722Z,96721.09
2018-02-21T18:53:17.227Z,96717.98
2018-02-21T18:55:44.756Z,96723.58
2018-02-21T18:58:12.395Z,96717.43
2018-02-21T19:00:39.870Z,96726.25
2018-02-21T19:03:07.340Z,96713.12
2018-02-21T19:05:34.946Z,96721.22
2018-02-21T19:08:02.402Z,96715.48
2018-02-21T19:10:30.012Z,96716.78
2018-02-21T19:12:57.550Z,96707.30
2018-02-21T19:15:25.067Z,96707.72
2018-02-21T19:17:52.739Z,96703.33
2018-02-21T19:20:20.245Z,96701.06
2018-02-21T19:22:47.735Z,96707.53
2018-02-21T19:25:15.346Z,96696.53
2018-02-21T19:27:42.900Z,96698.25
2018-02-21T19:30:10.452Z,96696.06
2018-02-21T19:32:38.020Z,96683.92
2018-02-21T19:35:05.506Z,96689.23
2018-02-21T19:37:32.987Z,96697.50
2018-02-21T19:40:00.490Z,96701.09
2018-02-21T19:42:28.064Z,96684.60
2018-02-21T19:44:55.531Z,96690.98
2018-02-21T19:47:22.967Z,96683.92
2018-02-21T19:49:50.437Z,96696.82
2018-02-21T19:52:17.995Z,96692.52
2018-02-21T19:54:45.423Z,96699.63
2018-02-21T19:57:12.820Z,96701.86
2018-02-21T19:59:40.278Z,96703.38
2018-02-21T20:02:07.716Z,96705.55
2018-02-21T20:04:35.177Z,96694.36
2018-02-21T20:07:02.560Z,96715.53
2018-02-21T20:09:29.958Z,96712.58
2018-02-21T20:11:57.364Z,96702.08
2018-02-21T20:14:25.031Z,96694.63
2018-02-21T20:16:52.537Z,96708.36
2018-02-21T20:19:20.031Z,96706.45
2018-02-21T20:21:47.536Z,96695.26
2018-02-21T20:24:15.030Z,96696.09
2018-02-21T20:26:42.447Z,96700.44
2018-02-21T20:29:09.995Z,96701.40
2018-02-21T20:31:37.419Z,96690.13
2018-02-21T20:34:04.931Z,96699.78
2018-02-21T20:36:32.547Z,96693.45
2018-02-21T20:39:00.099Z,96700.05
2018-02-21T20:41:27.650Z,96695.20
2018-02-21T20:43:55.144Z,96684.06
2018-02-21T20:46:22.625Z,96696.30
2018-02-21T20:48:50.063Z,96695.75
2018-02-21T20:51:17.578Z,96691.58
2018-02-21T20:53:45.044Z,96685.20
2018-02-21T20:56:12.533Z,96685.70
2018-02-21T20:58:39.967Z,96674.94
2018-02-21T21:01:07.496Z,96678.41
2018-02-21T21:03:34.910Z,96675.69
2018-02-21T21:06:02.363Z,96659.30
2018-02-21T21:08:29.970Z,96662.10
2018-02-21T21:10:57.405Z,96666.23
2018-02-21T21:13:24.865Z,96669.55
2018-02-21T21:15:52.279Z,96668.96
2018-02-21T21:18:19.722Z,96669.61
2018-02-21T21:20:47.160Z,96668.83
2018-02-21T21:23:14.617Z,96658.36
2018-02-21T21:25:42.090Z,96654.34
2018-02-21T21:28:09.564Z,96655.79
2018-02-21T21:30:37.037Z,96654.88
2018-02-21T21:33:04.464Z,96646.38
2018-02-21T21:35:31.926Z,96636.26
2018-02-21T21:37:59.423Z,96645.23
2018-02-21T21:40:26.820Z,96648.91
2018-02-21T21:42:54.319Z,96645.41
2018-02-21T21:45:21.732Z,96639.27
2018-02-21T21:47:49.152Z,96639.77
2018-02-21T21:50:16.665Z,96639.39
2018-02-21T21:52:44.203Z,96636.34
2018-02-21T21:55:11.719Z,96636.67
2018-02-21T21:57:39.196Z,96641.89
2018-02-21T22:00:06.707Z,96641.02
2018-02-21T22:02:34.372Z,96640.59
2018-02-21T22:05:01.821Z,96628.17
2018-02-21T22:07:29.296Z,96636.26
2018-02-21T22:09:56.708Z,96637.05
2018-02-21T22:12:24.111Z,96637.86
2018-02-21T22:14:51.572Z,96635.15
2018-02-21T22:17:19.105Z,96626.14
2018-02-21T22:19:46.656Z,96625.89
2018-02-21T22:22:14.789Z,96627.91
2018-02-21T22:24:42.318Z,96621.53
2018-02-21T22:27:09.809Z,96620.98
2018-02-21T22:29:37.229Z,96614.70
2018-02-21T22:32:04.766Z,96616.78
2018-02-21T22:34:32.188Z,96611.16
2018-02-21T22:36:59.709Z,96615.95
2018-02-21T22:39:28.431Z,96603.91
2018-02-21T22:41:55.951Z,96611.74
2018-02-21T22:44:23.360Z,96601.77
2018-02-21T22:46:50.797Z,96608.56
2018-02-21T22:49:18.222Z,96603.80
2018-02-21T22:51:45.612Z,96613.83
2018-02-21T22:54:13.017Z,96600.78
2018-02-21T22:56:40.463Z,96598.98
2018-02-21T22:59:07.965Z,96599.49
2018-02-21T23:01:35.365Z,96594.23
2018-02-21T23:04:02.780Z,96600.37
2018-02-21T23:06:31.007Z,96589.94
2018-02-21T23:08:58.440Z,96588.66
2018-02-21T23:11:25.851Z,96585.15
2018-02-21T23:13:53.258Z,96587.44
2018-02-21T23:16:20.704Z,96587.44
2018-02-21T23:18:48.144Z,96569.89
2018-02-21T23:21:15.544Z,96582.23
2018-02-21T23:23:42.988Z,96576.89
2018-02-21T23:26:10.508Z,96576.42
2018-02-21T23:28:37.926Z,96574.03
2018-02-21T23:31:05.372Z,96577.63
2018-02-21T23:33:32.774Z,96562.76
2018-02-21T23:36:00.209Z,96562.05
2018-02-21T23:38:27.591Z,96560.61
2018-02-21T23:40:54.999Z,96566.11
2018-02-21T23:43:22.439Z,96562.52
2018-02-21T23:45:49.842Z,96550.61
2018-02-21T23:48:17.984Z,96543.12
2018-02-21T23:50:45.591Z,96543.98
2018-02-21T23:53:13.396Z,96549.53
2018-02-21T23:55:40.786Z,96540.77
2018-02-21T23:58:08.194Z,96535.52
